Terminal Aerodrome Forecast
Issued by NWS

Home | Current Version | Previous Version | Text Only | Print | Product List | Glossary On
Versions: 1 2 3 4 5 6 7 8 9 10 11 12 13 14 15 16
000
FTAK31 PAJN 191100
TAFASI
TAF
PASI 191122Z 1912/2012 11015G25KT P6SM -RA OVC035
     FM191500 13015G25KT 5SM -RA BKN015 OVC030
     FM200000 12010G18KT 6SM -RA OVC015
     FM200400 15006KT 5SM RA BR BKN015 OVC025=

USA.gov is the U.S. government's official web portal to all federal, state and local government web resources and services.